METAR Formatted Surface Weather Observation
Issued by NWS

Home | Current Version | Previous Version | Graphics & Text | Print | Product List | Glossary On
Versions: 1 2 3 4 5 6 7 8 9 10 11 12 13 14 15 16 17 18 19 20 21 22 23 24 25 26 27
899
SAUS43 KEAX 270100 COR
MTRCDJ
METAR KCDJ 270052Z AUTO 10006KT 24/22 A3002 RMK AO1 SLP154 T02390217



USA.gov is the U.S. government's official web portal to all federal, state and local government web resources and services.